createdAt,value
2023-03-20T00:02:27.212Z,99455.22
2023-03-20T00:04:57.242Z,99461.16
2023-03-20T00:07:27.473Z,99457.59
2023-03-20T00:09:58.112Z,99455.75
2023-03-20T00:12:27.318Z,99453.25
2023-03-20T00:14:56.544Z,99451.47
2023-03-20T00:17:25.570Z,99446.84
2023-03-20T00:19:54.191Z,99449.47
2023-03-20T00:22:24.623Z,99442.19
2023-03-20T00:24:54.426Z,99440.25
2023-03-20T00:27:23.281Z,99434.78
2023-03-20T00:29:51.847Z,99434.66
2023-03-20T00:32:20.701Z,99423.97
2023-03-20T00:34:51.560Z,99429.22
2023-03-20T00:37:20.781Z,99417.75
2023-03-20T00:39:51.033Z,99416.72
2023-03-20T00:42:22.729Z,99416.66
2023-03-20T00:44:54.455Z,99408.66
2023-03-20T00:47:27.271Z,99406.09
2023-03-20T00:49:58.093Z,99401.75
2023-03-20T00:52:28.644Z,99407.78
2023-03-20T00:54:58.798Z,99401.81
2023-03-20T00:57:30.811Z,99404.44
2023-03-20T01:00:02.402Z,99399.31
2023-03-20T01:02:32.152Z,99403.78
2023-03-20T01:05:03.883Z,99402.91
2023-03-20T01:07:32.800Z,99406.53
2023-03-20T01:10:05.809Z,99406.63
2023-03-20T01:12:35.039Z,99412.81
2023-03-20T01:15:03.678Z,99403.16
2023-03-20T01:17:32.762Z,99407.47
2023-03-20T01:20:01.315Z,99405.88
2023-03-20T01:22:30.616Z,99403.38
2023-03-20T01:24:59.303Z,99408.31
2023-03-20T01:27:29.885Z,99406.84
2023-03-20T01:29:58.552Z,99402.59
2023-03-20T01:32:27.387Z,99399.81
2023-03-20T01:34:56.098Z,99391.00
2023-03-20T01:37:28.987Z,99392.66
2023-03-20T01:40:02.794Z,99397.25
2023-03-20T01:42:36.488Z,99386.56
2023-03-20T01:45:17.037Z,99386.16
2023-03-20T01:47:46.546Z,99388.13
2023-03-20T01:50:26.709Z,99381.81
2023-03-20T01:53:22.741Z,99392.06
2023-03-20T01:56:01.677Z,99394.00
2023-03-20T01:58:52.539Z,99396.81
2023-03-20T02:01:21.658Z,99391.00
2023-03-20T02:03:53.298Z,99381.69
2023-03-20T02:06:45.045Z,99380.75
2023-03-20T02:09:26.534Z,99378.06
2023-03-20T02:11:57.265Z,99375.66
2023-03-20T02:14:28.411Z,99382.03
2023-03-20T02:17:09.934Z,99378.63
2023-03-20T02:19:59.570Z,99375.09
2023-03-20T02:23:06.883Z,99379.50
2023-03-20T02:26:16.582Z,99381.31
2023-03-20T02:29:38.298Z,99381.28
2023-03-20T02:32:36.930Z,99376.13
2023-03-20T02:35:34.023Z,99375.22
2023-03-20T02:38:31.192Z,99381.59
2023-03-20T02:41:06.128Z,99377.31
2023-03-20T02:43:44.247Z,99379.84
2023-03-20T02:46:23.951Z,99380.88
2023-03-20T02:48:57.762Z,99374.88
2023-03-20T02:51:36.804Z,99376.34
2023-03-20T02:54:12.621Z,99375.75
2023-03-20T02:56:52.655Z,99379.41
2023-03-20T02:59:30.876Z,99385.75
2023-03-20T03:02:08.632Z,99371.97
2023-03-20T03:04:41.247Z,99383.88
2023-03-20T03:07:13.338Z,99386.50
2023-03-20T03:09:50.371Z,99383.47
2023-03-20T03:12:22.993Z,99384.25
2023-03-20T03:14:55.422Z,99381.56
2023-03-20T03:17:29.058Z,99389.34
2023-03-20T03:20:04.619Z,99393.47
2023-03-20T03:22:36.390Z,99400.16
2023-03-20T03:25:07.955Z,99400.53
2023-03-20T03:27:40.663Z,99401.63
2023-03-20T03:30:17.249Z,99407.25
2023-03-20T03:32:51.886Z,99412.22
2023-03-20T03:35:24.675Z,99418.75
2023-03-20T03:38:00.473Z,99418.22
2023-03-20T03:40:37.206Z,99407.44
2023-03-20T03:43:14.637Z,99406.44
2023-03-20T03:45:51.385Z,99414.28
2023-03-20T03:48:25.049Z,99411.59
2023-03-20T03:50:57.675Z,99411.59
2023-03-20T03:53:32.403Z,99423.72
2023-03-20T03:56:05.227Z,99428.16
2023-03-20T03:58:41.640Z,99426.41
2023-03-20T04:01:13.629Z,99428.28
2023-03-20T04:03:45.347Z,99417.75
2023-03-20T04:06:16.926Z,99414.34
2023-03-20T04:08:46.308Z,99411.75
2023-03-20T04:11:19.394Z,99423.91
2023-03-20T04:13:51.901Z,99425.81
2023-03-20T04:16:23.784Z,99435.66
2023-03-20T04:18:53.044Z,99432.31
2023-03-20T04:21:22.203Z,99439.50
2023-03-20T04:23:50.832Z,99427.47
2023-03-20T04:26:21.564Z,99433.66
2023-03-20T04:28:51.899Z,99440.72
2023-03-20T04:31:23.706Z,99443.44
2023-03-20T04:34:10.900Z,99441.69
2023-03-20T04:36:47.042Z,99448.75
2023-03-20T04:39:17.822Z,99442.72
2023-03-20T04:41:48.387Z,99450.59
2023-03-20T04:44:17.422Z,99453.22
2023-03-20T04:46:48.358Z,99457.69
2023-03-20T04:49:18.720Z,99455.16
2023-03-20T04:51:47.817Z,99458.84
2023-03-20T04:54:20.054Z,99463.38
2023-03-20T04:56:50.743Z,99460.78
2023-03-20T04:59:22.228Z,99459.84
2023-03-20T05:01:52.566Z,99461.63
2023-03-20T05:04:23.663Z,99462.53
2023-03-20T05:06:52.758Z,99465.06
2023-03-20T05:09:24.419Z,99462.31
2023-03-20T05:11:56.271Z,99467.50
2023-03-20T05:14:43.285Z,99465.69
2023-03-20T05:17:27.150Z,99467.34
2023-03-20T05:20:28.356Z,99480.38
2023-03-20T05:23:32.700Z,99485.59
2023-03-20T05:26:19.731Z,99482.13
2023-03-20T05:29:08.899Z,99486.50
2023-03-20T05:31:47.846Z,99488.25
2023-03-20T05:34:27.802Z,99493.28
2023-03-20T05:37:16.895Z,99490.38
2023-03-20T05:40:15.965Z,99493.53
2023-03-20T05:57:07.157Z,99520.88
2023-03-20T05:59:54.993Z,99530.81
2023-03-20T06:02:53.422Z,99517.09
2023-03-20T06:05:48.422Z,99518.56
2023-03-20T06:08:17.302Z,99522.22
2023-03-20T06:10:46.592Z,99525.13
2023-03-20T06:13:16.560Z,99521.84
2023-03-20T06:15:45.664Z,99519.44
2023-03-20T06:18:18.535Z,99517.97
2023-03-20T06:20:47.701Z,99522.47
2023-03-20T06:23:16.661Z,99517.41
2023-03-20T06:25:45.553Z,99512.56
2023-03-20T06:28:17.519Z,99518.25
2023-03-20T06:30:47.512Z,99509.00
2023-03-20T06:33:21.084Z,99510.16
2023-03-20T06:36:05.351Z,99516.81
2023-03-20T06:38:34.706Z,99518.03
2023-03-20T06:41:09.535Z,99514.91
2023-03-20T06:43:40.680Z,99521.44
2023-03-20T06:46:11.116Z,99523.53
2023-03-20T06:48:40.379Z,99520.47
2023-03-20T06:51:09.569Z,99521.88
2023-03-20T06:53:47.670Z,99526.50
2023-03-20T06:56:20.650Z,99525.56
2023-03-20T06:58:50.622Z,99531.19
2023-03-20T07:01:20.577Z,99533.47
2023-03-20T07:03:49.798Z,99533.13
2023-03-20T07:06:24.132Z,99533.13
2023-03-20T07:08:53.835Z,99534.56
2023-03-20T07:11:23.782Z,99534.97
2023-03-20T07:13:56.741Z,99539.31
2023-03-20T07:16:39.988Z,99544.84
2023-03-20T07:19:10.247Z,99545.28
2023-03-20T07:21:42.465Z,99553.00
2023-03-20T07:24:15.453Z,99544.50
2023-03-20T07:26:44.715Z,99542.72
2023-03-20T07:29:15.046Z,99551.25
2023-03-20T07:31:44.272Z,99546.72
2023-03-20T07:34:17.380Z,99548.38
2023-03-20T07:36:47.607Z,99544.66
2023-03-20T07:39:20.247Z,99544.34
2023-03-20T07:42:00.048Z,99539.63
2023-03-20T07:44:46.558Z,99545.75
2023-03-20T07:47:15.646Z,99548.78
2023-03-20T07:49:44.462Z,99539.97
2023-03-20T07:52:13.658Z,99551.13
2023-03-20T07:54:42.620Z,99549.75
2023-03-20T07:57:11.600Z,99551.34
2023-03-20T07:59:40.403Z,99553.47
2023-03-20T08:02:16.203Z,99559.63
2023-03-20T08:04:46.516Z,99554.06
2023-03-20T08:07:15.816Z,99558.50
2023-03-20T08:09:44.759Z,99565.72
2023-03-20T08:12:16.051Z,99553.53
2023-03-20T08:14:44.946Z,99559.44
2023-03-20T08:17:18.750Z,99563.59
2023-03-20T08:19:48.790Z,99566.34
2023-03-20T08:22:18.553Z,99577.34
2023-03-20T08:24:47.337Z,99569.91
2023-03-20T08:27:17.329Z,99565.91
2023-03-20T08:29:46.642Z,99567.38
2023-03-20T08:32:16.979Z,99570.81
2023-03-20T08:34:46.107Z,99579.16
2023-03-20T08:37:15.982Z,99580.63
2023-03-20T08:39:44.563Z,99569.84
2023-03-20T08:42:13.428Z,99570.41
2023-03-20T08:44:42.012Z,99571.53
2023-03-20T08:47:12.252Z,99575.22
2023-03-20T08:49:43.456Z,99572.19
2023-03-20T08:52:12.784Z,99573.84
2023-03-20T08:54:41.390Z,99591.03
2023-03-20T08:57:10.466Z,99578.41
2023-03-20T08:59:39.135Z,99582.41
2023-03-20T09:02:08.376Z,99584.00
2023-03-20T09:04:37.331Z,99585.53
2023-03-20T09:07:08.291Z,99583.13
2023-03-20T09:09:37.116Z,99591.72
2023-03-20T09:12:07.686Z,99580.22
2023-03-20T09:14:36.526Z,99580.94
2023-03-20T09:17:05.992Z,99579.09
2023-03-20T09:19:35.439Z,99582.91
2023-03-20T09:22:04.608Z,99587.16
2023-03-20T09:24:34.733Z,99579.75
2023-03-20T09:27:03.883Z,99579.72
2023-03-20T09:29:33.680Z,99574.16
2023-03-20T09:32:02.824Z,99571.16
2023-03-20T09:34:31.500Z,99571.88
2023-03-20T09:37:04.133Z,99571.63
2023-03-20T09:39:34.374Z,99575.78
2023-03-20T09:42:15.582Z,99564.34
2023-03-20T09:44:56.904Z,99563.56
2023-03-20T09:47:34.933Z,99568.16
2023-03-20T09:50:22.398Z,99548.94
2023-03-20T09:53:00.115Z,99552.53
2023-03-20T09:55:36.833Z,99556.53
2023-03-20T09:58:13.696Z,99549.75
2023-03-20T10:00:46.617Z,99552.16
2023-03-20T10:03:22.274Z,99545.72
2023-03-20T10:05:57.311Z,99543.41
2023-03-20T10:08:30.990Z,99531.59
2023-03-20T10:11:12.959Z,99515.66
2023-03-20T10:14:18.603Z,99519.69
2023-03-20T10:17:05.067Z,99521.19
2023-03-20T10:19:43.890Z,99520.50
2023-03-20T10:22:25.513Z,99518.41
2023-03-20T10:25:00.323Z,99507.41
2023-03-20T10:27:36.323Z,99513.34
2023-03-20T10:30:24.227Z,99511.34
2023-03-20T10:33:04.563Z,99514.38
2023-03-20T10:35:40.662Z,99507.31
2023-03-20T10:38:22.668Z,99511.09
2023-03-20T10:40:52.542Z,99502.53
2023-03-20T10:43:25.932Z,99503.06
2023-03-20T10:46:01.320Z,99500.97
2023-03-20T10:48:35.007Z,99504.84
2023-03-20T10:51:04.843Z,99500.69
2023-03-20T10:53:38.524Z,99508.78
2023-03-20T10:56:11.877Z,99507.59
2023-03-20T10:58:46.336Z,99495.16
2023-03-20T11:01:16.244Z,99491.16
2023-03-20T11:03:45.029Z,99485.41
2023-03-20T11:06:22.190Z,99484.97
2023-03-20T11:08:53.256Z,99480.38
2023-03-20T11:11:26.841Z,99475.72
2023-03-20T11:13:57.115Z,99470.44
2023-03-20T11:16:31.792Z,99471.66
2023-03-20T11:19:07.497Z,99473.59
2023-03-20T11:21:46.516Z,99461.66
2023-03-20T11:24:28.324Z,99467.34
2023-03-20T11:27:07.481Z,99462.28
2023-03-20T11:29:39.048Z,99461.03
2023-03-20T11:32:17.883Z,99459.56
2023-03-20T11:34:46.645Z,99462.38
2023-03-20T11:37:26.124Z,99449.66
2023-03-20T11:39:59.351Z,99441.84
2023-03-20T11:42:30.630Z,99445.03
2023-03-20T11:45:02.847Z,99440.31
2023-03-20T11:47:35.361Z,99446.69
2023-03-20T11:50:07.308Z,99439.41
2023-03-20T11:52:38.998Z,99429.94
2023-03-20T11:55:24.976Z,99431.91
2023-03-20T11:57:58.981Z,99427.84
2023-03-20T12:00:31.676Z,99425.22
2023-03-20T12:03:00.942Z,99418.63
2023-03-20T12:05:33.361Z,99416.00
2023-03-20T12:08:08.651Z,99422.78
2023-03-20T12:10:42.484Z,99418.78
2023-03-20T12:13:18.517Z,99412.63
2023-03-20T12:15:53.476Z,99409.91
2023-03-20T12:18:27.817Z,99402.09
2023-03-20T12:21:06.846Z,99409.91
2023-03-20T12:23:43.252Z,99402.25
2023-03-20T12:26:15.063Z,99390.00
2023-03-20T12:28:52.981Z,99386.09
2023-03-20T12:31:27.296Z,99380.59
2023-03-20T12:34:01.275Z,99376.41
2023-03-20T12:36:34.019Z,99372.16
2023-03-20T12:39:05.894Z,99377.53
2023-03-20T12:41:43.805Z,99367.22
2023-03-20T12:44:43.863Z,99363.28
2023-03-20T12:47:40.586Z,99375.91
2023-03-20T12:50:20.056Z,99373.22
2023-03-20T12:53:00.773Z,99364.88
2023-03-20T12:55:41.934Z,99357.50
2023-03-20T12:58:24.659Z,99356.53
2023-03-20T13:01:03.753Z,99358.16
2023-03-20T13:03:46.286Z,99350.56
2023-03-20T13:06:21.842Z,99352.72
2023-03-20T13:09:12.306Z,99355.13
2023-03-20T13:11:51.932Z,99359.41
2023-03-20T13:14:27.397Z,99349.00
2023-03-20T13:17:03.202Z,99357.56
2023-03-20T13:19:41.952Z,99354.59
2023-03-20T13:22:19.900Z,99351.75
2023-03-20T13:24:51.550Z,99348.38
2023-03-20T13:27:37.480Z,99354.47
2023-03-20T13:30:18.311Z,99348.41
2023-03-20T13:32:56.594Z,99352.00
2023-03-20T13:35:44.821Z,99350.97
2023-03-20T13:38:18.172Z,99353.16
2023-03-20T13:40:49.683Z,99348.19
2023-03-20T13:43:28.269Z,99340.81
2023-03-20T13:46:04.799Z,99342.38
2023-03-20T13:48:36.560Z,99351.53
2023-03-20T13:51:23.232Z,99338.69
2023-03-20T13:54:01.880Z,99329.97
2023-03-20T13:56:42.173Z,99326.34
2023-03-20T13:59:40.749Z,99323.63
2023-03-20T14:02:28.188Z,99324.44
2023-03-20T14:05:04.794Z,99327.38
2023-03-20T14:07:38.299Z,99333.94
2023-03-20T14:10:35.388Z,99328.78
2023-03-20T14:13:08.579Z,99329.81
2023-03-20T14:15:41.852Z,99323.19
2023-03-20T14:18:17.384Z,99328.47
2023-03-20T14:20:55.446Z,99322.38
2023-03-20T14:23:36.559Z,99312.25
2023-03-20T14:26:21.616Z,99314.50
2023-03-20T14:29:01.141Z,99312.91
2023-03-20T14:31:34.295Z,99318.41
2023-03-20T14:34:21.652Z,99315.03
2023-03-20T14:37:00.016Z,99306.41
2023-03-20T14:39:44.949Z,99310.69
2023-03-20T14:42:37.663Z,99304.81
2023-03-20T14:45:31.689Z,99306.78
2023-03-20T14:48:08.285Z,99314.19
2023-03-20T14:50:42.584Z,99307.66
2023-03-20T14:53:18.131Z,99316.22
2023-03-20T14:56:04.289Z,99303.47
2023-03-20T14:58:58.582Z,99312.00
2023-03-20T15:01:46.007Z,99313.03
2023-03-20T15:04:26.578Z,99311.72
2023-03-20T15:06:59.748Z,99306.69
2023-03-20T15:09:32.251Z,99313.00
2023-03-20T15:12:05.147Z,99308.03
2023-03-20T15:14:41.623Z,99296.72
2023-03-20T15:17:19.276Z,99316.84
2023-03-20T15:19:50.306Z,99312.34
2023-03-20T15:22:21.902Z,99309.34
2023-03-20T15:24:56.026Z,99311.59
2023-03-20T15:27:29.732Z,99310.06
2023-03-20T15:30:01.872Z,99304.50
2023-03-20T15:32:30.743Z,99307.41
2023-03-20T15:34:59.684Z,99309.66
2023-03-20T15:37:28.594Z,99308.50
2023-03-20T15:39:59.290Z,99308.44
2023-03-20T15:42:31.588Z,99313.63
2023-03-20T15:45:01.336Z,99316.41
2023-03-20T15:47:30.608Z,99322.13
2023-03-20T15:50:02.886Z,99329.28
2023-03-20T15:52:34.025Z,99326.34
2023-03-20T15:55:08.029Z,99322.13
2023-03-20T15:57:40.642Z,99323.78
2023-03-20T16:00:15.784Z,99322.50
2023-03-20T16:02:48.538Z,99329.28
2023-03-20T16:05:19.578Z,99325.06
2023-03-20T16:07:48.460Z,99331.50
2023-03-20T16:10:20.277Z,99333.84
2023-03-20T16:12:54.590Z,99339.38
2023-03-20T16:15:27.732Z,99337.91
2023-03-20T16:17:59.546Z,99331.75
2023-03-20T16:20:34.886Z,99322.00
2023-03-20T16:23:07.157Z,99331.38
2023-03-20T16:25:37.181Z,99347.69
2023-03-20T16:28:08.059Z,99352.75
2023-03-20T16:30:37.565Z,99351.34
2023-03-20T16:33:12.638Z,99355.25
2023-03-20T16:35:45.957Z,99352.94
2023-03-20T16:38:24.846Z,99355.03
2023-03-20T16:40:55.699Z,99361.50
2023-03-20T16:43:31.583Z,99358.50
2023-03-20T16:46:06.551Z,99360.59
2023-03-20T16:48:37.808Z,99361.41
2023-03-20T16:51:18.000Z,99360.53
2023-03-20T16:53:49.052Z,99370.31
2023-03-20T16:56:24.241Z,99379.63
2023-03-20T16:58:56.746Z,99374.97
2023-03-20T17:01:29.739Z,99373.56
2023-03-20T17:04:13.218Z,99381.47
2023-03-20T17:06:47.919Z,99377.22
2023-03-20T17:09:24.767Z,99384.72
2023-03-20T17:12:01.504Z,99391.47
2023-03-20T17:14:31.802Z,99393.66
2023-03-20T17:17:00.815Z,99387.34
2023-03-20T17:19:29.587Z,99388.94
2023-03-20T17:22:03.590Z,99392.13
2023-03-20T17:24:32.359Z,99385.97
2023-03-20T17:27:01.546Z,99382.19
2023-03-20T17:29:31.767Z,99389.16
2023-03-20T17:32:00.884Z,99380.69
2023-03-20T17:34:29.666Z,99387.16
2023-03-20T17:37:01.426Z,99389.47
2023-03-20T17:39:30.407Z,99387.97
2023-03-20T17:41:59.470Z,99390.78
2023-03-20T17:44:28.103Z,99382.47
2023-03-20T17:46:59.380Z,99386.41
2023-03-20T17:49:28.792Z,99383.75
2023-03-20T17:51:57.807Z,99393.94
2023-03-20T17:54:26.465Z,99391.63
2023-03-20T17:56:55.474Z,99385.06
2023-03-20T17:59:28.931Z,99396.28
2023-03-20T18:01:59.212Z,99403.31
2023-03-20T18:04:27.874Z,99395.06
2023-03-20T18:06:57.107Z,99399.38
2023-03-20T18:09:25.918Z,99402.00
2023-03-20T18:11:55.125Z,99400.50
2023-03-20T18:14:23.780Z,99415.13
2023-03-20T18:16:52.910Z,99407.31
2023-03-20T18:19:26.916Z,99411.09
2023-03-20T18:21:56.436Z,99411.03
2023-03-20T18:24:25.626Z,99421.16
2023-03-20T18:26:55.834Z,99418.44
2023-03-20T18:29:24.455Z,99415.91
2023-03-20T18:31:53.688Z,99426.78
2023-03-20T18:34:23.792Z,99425.38
2023-03-20T18:36:52.740Z,99432.91
2023-03-20T18:39:23.295Z,99428.44
2023-03-20T18:41:52.662Z,99427.38
2023-03-20T18:44:21.956Z,99429.75
2023-03-20T18:46:51.080Z,99428.88
2023-03-20T18:49:22.430Z,99430.13
2023-03-20T18:51:54.235Z,99424.09
2023-03-20T18:54:22.882Z,99430.53
2023-03-20T18:56:52.259Z,99429.19
2023-03-20T18:59:20.943Z,99430.22
2023-03-20T19:01:50.006Z,99437.16
2023-03-20T19:04:18.924Z,99427.00
2023-03-20T19:06:48.735Z,99428.56
2023-03-20T19:09:19.548Z,99428.34
2023-03-20T19:11:49.304Z,99426.81
2023-03-20T19:14:19.341Z,99420.28
2023-03-20T19:16:48.437Z,99423.31
2023-03-20T19:19:17.249Z,99426.47
2023-03-20T19:21:46.144Z,99422.31
2023-03-20T19:24:14.981Z,99424.19
2023-03-20T19:26:46.397Z,99417.84
2023-03-20T19:29:15.025Z,99415.19
2023-03-20T19:31:44.064Z,99418.44
2023-03-20T19:34:44.370Z,99410.56
2023-03-20T19:37:02.141Z,99410.81
2023-03-20T19:39:31.393Z,99413.53
2023-03-20T19:42:23.617Z,99399.03
2023-03-20T19:44:50.707Z,99394.13
2023-03-20T19:47:19.710Z,99387.34
2023-03-20T19:49:48.441Z,99401.75
2023-03-20T19:52:28.746Z,99394.91
2023-03-20T19:55:03.048Z,99399.09
2023-03-20T19:57:34.152Z,99398.72
2023-03-20T20:00:55.000Z,99404.50
2023-03-20T20:02:52.668Z,99404.91
2023-03-20T20:05:26.630Z,99406.19
2023-03-20T20:08:22.438Z,99407.28
2023-03-20T20:10:47.692Z,99413.72
2023-03-20T20:13:20.663Z,99417.94
2023-03-20T20:15:50.959Z,99431.66
2023-03-20T20:18:21.888Z,99433.63
2023-03-20T20:23:42.485Z,99430.63
2023-03-20T20:26:11.117Z,99439.16
2023-03-20T20:28:41.494Z,99445.00
2023-03-20T20:31:10.103Z,99445.00
2023-03-20T20:33:39.742Z,99449.06
2023-03-20T20:37:13.249Z,99444.34
2023-03-20T20:39:01.750Z,99436.91
2023-03-20T20:41:30.519Z,99439.56
2023-03-20T20:44:15.537Z,99431.28
2023-03-20T20:46:44.993Z,99438.69
2023-03-20T20:49:19.476Z,99443.84
2023-03-20T20:51:48.758Z,99439.03
2023-03-20T20:54:18.216Z,99438.38
2023-03-20T20:56:46.891Z,99438.53
2023-03-20T20:59:17.417Z,99445.44
2023-03-20T21:01:46.423Z,99440.91
2023-03-20T21:04:15.383Z,99438.53
2023-03-20T21:07:08.663Z,99440.53
2023-03-20T21:09:33.625Z,99438.75
2023-03-20T21:12:03.242Z,99444.63
2023-03-20T21:14:33.613Z,99452.38
2023-03-20T21:17:02.180Z,99442.75
2023-03-20T21:19:32.134Z,99439.81
2023-03-20T21:22:00.736Z,99440.06
2023-03-20T21:24:33.993Z,99448.16
2023-03-20T21:27:05.177Z,99438.56
2023-03-20T21:29:35.804Z,99446.84
2023-03-20T21:32:04.787Z,99451.88
2023-03-20T21:34:33.786Z,99443.72
2023-03-20T21:37:49.558Z,99448.50
2023-03-20T21:39:52.611Z,99450.44
2023-03-20T21:42:21.424Z,99444.56
2023-03-20T21:45:44.088Z,99443.31
2023-03-20T21:48:23.470Z,99450.44
2023-03-20T21:50:57.067Z,99455.72
2023-03-20T21:54:20.777Z,99450.66
2023-03-20T22:02:09.328Z,99447.31
2023-03-20T22:05:28.768Z,99444.25
2023-03-20T22:08:08.840Z,99451.47
2023-03-20T22:16:37.352Z,99451.03
2023-03-20T22:19:38.635Z,99443.63
2023-03-20T22:24:59.346Z,99442.88
2023-03-20T22:28:03.768Z,99436.19
2023-03-20T22:31:01.747Z,99438.06
2023-03-20T22:33:41.156Z,99437.91
2023-03-20T22:36:21.505Z,99429.22
2023-03-20T22:42:12.417Z,99426.91
2023-03-20T22:46:58.640Z,99427.19
2023-03-20T22:49:27.408Z,99419.63
2023-03-20T22:52:14.748Z,99420.94
2023-03-20T22:54:46.341Z,99421.44
2023-03-20T22:57:15.443Z,99422.91
2023-03-20T22:59:44.229Z,99419.94
2023-03-20T23:02:13.122Z,99410.88
2023-03-20T23:04:41.986Z,99421.09
2023-03-20T23:07:13.571Z,99417.53
2023-03-20T23:09:42.949Z,99411.19
2023-03-20T23:12:11.888Z,99416.25
2023-03-20T23:14:45.884Z,99412.69
2023-03-20T23:17:15.679Z,99413.00
2023-03-20T23:19:49.093Z,99413.72
2023-03-20T23:22:22.969Z,99416.25
2023-03-20T23:24:52.139Z,99411.03
2023-03-20T23:27:22.364Z,99405.63
2023-03-20T23:29:50.946Z,99412.63
2023-03-20T23:32:20.180Z,99408.28
2023-03-20T23:34:48.940Z,99409.06
2023-03-20T23:37:18.135Z,99406.44
2023-03-20T23:39:48.128Z,99411.78
2023-03-20T23:42:29.783Z,99401.25
2023-03-20T23:45:07.049Z,99413.50
2023-03-20T23:47:44.790Z,99410.06
2023-03-20T23:50:26.432Z,99397.72
2023-03-20T23:53:06.700Z,99400.34
2023-03-20T23:55:44.555Z,99399.41
2023-03-20T23:58:14.211Z,99390.91
